Time;durP1;ratioP1;P1;durP2;ratioP2;P2;SDS_P1;SDS_P2;PMS_P1;PMS_P2;Temp;Humidity;BMP_temperature;BMP_pressure;BME280_temperature;BME280_humidity;BME280_pressure;Samples;Min_cycle;Max_cycle;Signal;HPM_P1;HPM_P2
2023/01/21 00:01:29;;;;;;;9.55;6.72;;;;;;;18.27;37.90;102412.72;5053982;28;20028;-73
2023/01/21 00:03:55;;;;;;;8.40;6.22;;;;;;;18.26;37.98;102412.81;5053347;28;20036;-72
2023/01/21 00:06:20;;;;;;;7.70;5.60;;;;;;;18.25;37.86;102413.78;5054143;28;20021;-73
2023/01/21 00:08:45;;;;;;;8.18;6.10;;;;;;;18.25;37.92;102422.53;5054079;28;20482;-74
2023/01/21 00:11:13;;;;;;;8.98;6.38;;;;;;;18.22;37.55;102419.22;5054124;28;20032;-75
2023/01/21 00:13:39;;;;;;;9.18;6.70;;;;;;;18.20;37.39;102429.88;5053601;28;20032;-75
2023/01/21 00:16:06;;;;;;;9.10;6.70;;;;;;;18.17;37.57;102434.47;5053582;28;20087;-73
2023/01/21 00:18:32;;;;;;;8.57;6.20;;;;;;;18.19;37.44;102438.72;5053405;28;20043;-73
2023/01/21 00:20:57;;;;;;;9.38;6.85;;;;;;;18.17;37.27;102445.88;5053893;28;20277;-73
2023/01/21 00:23:23;;;;;;;8.25;6.32;;;;;;;18.15;37.49;102444.25;5053075;28;20040;-75
2023/01/21 00:25:48;;;;;;;8.65;6.57;;;;;;;18.13;37.18;102441.69;5053174;28;20923;-73
2023/01/21 00:28:13;;;;;;;9.85;7.00;;;;;;;18.13;37.31;102449.59;5053283;28;20033;-73
2023/01/21 00:30:40;;;;;;;8.75;6.97;;;;;;;18.11;37.07;102452.31;5053151;28;21088;-76
2023/01/21 00:33:06;;;;;;;9.95;6.55;;;;;;;18.08;36.78;102444.59;5053934;28;20793;-72
2023/01/21 00:35:31;;;;;;;10.15;7.03;;;;;;;18.10;36.76;102452.41;5053046;28;20131;-73
2023/01/21 00:37:56;;;;;;;9.43;6.72;;;;;;;18.09;37.00;102459.50;5053484;28;20036;-74
2023/01/21 00:40:23;;;;;;;8.68;6.18;;;;;;;18.06;36.67;102457.03;5053104;28;20044;-75
2023/01/21 00:42:48;;;;;;;10.57;6.90;;;;;;;18.05;36.81;102457.09;5053581;28;20064;-76
2023/01/21 00:45:14;;;;;;;9.25;7.10;;;;;;;18.03;36.77;102459.81;5059519;28;20147;-74
2023/01/21 00:47:39;;;;;;;9.23;6.50;;;;;;;18.03;36.66;102465.09;5053204;28;20039;-75
2023/01/21 00:50:05;;;;;;;9.05;6.63;;;;;;;17.98;36.62;102458.38;5052950;28;20497;-75
2023/01/21 00:52:30;;;;;;;8.80;6.50;;;;;;;17.99;36.57;102474.13;5051416;28;20166;-75
2023/01/21 00:54:56;;;;;;;9.98;6.78;;;;;;;17.95;36.58;102470.78;5052706;28;20582;-74
2023/01/21 00:57:21;;;;;;;9.65;6.97;;;;;;;17.94;36.58;102479.66;5053685;28;20836;-73
2023/01/21 00:59:46;;;;;;;8.65;6.85;;;;;;;17.94;36.47;102484.06;5052630;28;20048;-75
2023/01/21 01:02:12;;;;;;;9.20;7.13;;;;;;;17.87;36.25;102486.16;5052447;28;20063;-74
2023/01/21 01:04:37;;;;;;;9.57;7.13;;;;;;;17.94;36.49;102503.41;5052508;28;20044;-73
2023/01/21 01:07:03;;;;;;;8.73;7.25;;;;;;;17.93;36.31;102506.97;5053255;28;20047;-75
2023/01/21 01:09:28;;;;;;;9.70;6.65;;;;;;;17.87;36.13;102503.78;5052488;28;20056;-74
2023/01/21 01:11:54;;;;;;;8.52;6.43;;;;;;;17.88;36.28;102509.00;5059482;28;20037;-75
2023/01/21 01:14:20;;;;;;;9.35;6.90;;;;;;;17.86;36.09;102513.47;5052578;28;20045;-74
2023/01/21 01:16:45;;;;;;;8.35;6.30;;;;;;;17.89;36.12;102521.25;5052572;28;20136;-72
2023/01/21 01:19:11;;;;;;;9.57;6.65;;;;;;;17.87;36.68;102528.34;5052701;28;20028;-75
2023/01/21 01:21:37;;;;;;;8.68;6.90;;;;;;;17.83;38.06;102525.97;5052403;28;20043;-74
2023/01/21 01:24:02;;;;;;;7.97;6.32;;;;;;;17.83;38.61;102536.50;5052461;28;20033;-75
2023/01/21 01:26:28;;;;;;;8.88;6.43;;;;;;;17.83;38.90;102542.66;5052159;28;20224;-73
2023/01/21 01:28:54;;;;;;;9.52;6.53;;;;;;;17.81;38.78;102552.41;5052029;28;20268;-73
2023/01/21 01:31:20;;;;;;;9.95;7.05;;;;;;;17.83;39.03;102554.97;5052493;28;20119;-73
2023/01/21 01:33:45;;;;;;;10.38;7.43;;;;;;;17.76;39.20;102557.09;5052198;28;20044;-76
2023/01/21 01:36:17;;;;;;;9.73;7.18;;;;;;;17.75;39.46;102568.56;5052420;28;20071;-75
2023/01/21 01:38:43;;;;;;;10.15;6.90;;;;;;;17.75;39.50;102566.78;5052187;28;20388;-74
2023/01/21 01:41:14;;;;;;;9.98;6.72;;;;;;;17.67;39.55;102562.84;5051779;28;20028;-76
2023/01/21 01:43:54;;;;;;;10.40;6.80;;;;;;;17.74;39.53;102580.06;5051530;28;20140;-74
2023/01/21 01:46:20;;;;;;;10.07;6.97;;;;;;;17.71;39.66;102577.59;5052094;28;20041;-74
2023/01/21 01:48:51;;;;;;;10.73;7.32;;;;;;;17.68;40.04;102577.75;5050408;28;20060;-74
2023/01/21 01:51:20;;;;;;;11.38;7.57;;;;;;;17.68;39.94;102585.66;5052203;28;20037;-74
2023/01/21 01:53:46;;;;;;;11.40;7.57;;;;;;;17.66;40.37;102585.72;5052053;28;20086;-74
2023/01/21 01:56:12;;;;;;;10.18;7.43;;;;;;;17.67;40.39;102587.41;5052073;28;20047;-73
2023/01/21 01:58:37;;;;;;;11.30;7.93;;;;;;;17.66;40.23;102595.44;5051214;28;20029;-73
2023/01/21 02:01:03;;;;;;;9.15;7.30;;;;;;;17.56;39.94;102581.84;5051829;28;20037;-75
2023/01/21 02:03:45;;;;;;;11.02;7.97;;;;;;;17.64;40.19;102594.63;5051374;28;20079;-74
2023/01/21 02:06:12;;;;;;;11.32;8.00;;;;;;;17.63;40.32;102600.88;5051079;28;20051;-73
2023/01/21 02:08:38;;;;;;;10.38;7.68;;;;;;;17.62;40.32;102604.41;5051748;28;20029;-74
2023/01/21 02:11:16;;;;;;;10.90;8.00;;;;;;;17.62;40.46;102609.69;5051987;28;20122;-74
2023/01/21 02:13:45;;;;;;;9.45;7.55;;;;;;;17.56;40.51;102602.94;5051308;28;20051;-74
2023/01/21 02:16:37;;;;;;;10.70;8.10;;;;;;;17.58;40.76;102607.22;5050745;28;20033;-74
2023/01/21 02:19:33;;;;;;;10.77;7.95;;;;;;;17.56;40.73;102616.13;5051693;28;20439;-75
2023/01/21 02:22:26;;;;;;;11.13;8.65;;;;;;;17.51;40.62;102612.88;5051167;28;20111;-72
2023/01/21 02:25:07;;;;;;;10.98;8.02;;;;;;;17.57;40.63;102631.00;5051175;28;20033;-75
2023/01/21 02:27:53;;;;;;;11.52;8.02;;;;;;;17.51;40.49;102632.16;5051554;28;20051;-74
2023/01/21 02:30:34;;;;;;;11.10;7.97;;;;;;;17.53;40.89;102635.59;5049968;28;20123;-75
2023/01/21 02:33:34;;;;;;;12.63;8.75;;;;;;;17.51;40.52;102634.81;5051234;28;20037;-74
2023/01/21 02:36:24;;;;;;;12.95;8.70;;;;;;;17.50;40.68;102637.50;5051611;28;20035;-73
2023/01/21 02:39:02;;;;;;;13.55;8.48;;;;;;;17.47;40.63;102632.44;5051694;28;20060;-75
2023/01/21 02:41:45;;;;;;;11.35;8.10;;;;;;;17.46;40.82;102633.34;5051380;28;20029;-73
2023/01/21 02:44:35;;;;;;;12.98;8.90;;;;;;;17.44;40.88;102633.41;5050683;28;20048;-74
2023/01/21 02:47:07;;;;;;;14.07;9.02;;;;;;;17.46;40.79;102636.81;5050906;28;20047;-73
2023/01/21 02:49:41;;;;;;;11.77;9.02;;;;;;;17.41;40.91;102641.47;5050982;28;20091;-73
2023/01/21 02:52:06;;;;;;;13.00;9.00;;;;;;;17.43;40.95;102650.16;5049625;28;20035;-73
2023/01/21 02:54:37;;;;;;;13.50;8.85;;;;;;;17.43;40.91;102659.84;5051049;28;20040;-75
2023/01/21 02:57:08;;;;;;;12.35;8.80;;;;;;;17.42;41.13;102664.28;5051274;28;20115;-74
2023/01/21 02:59:36;;;;;;;14.05;9.63;;;;;;;17.39;40.72;102654.72;5051280;28;20142;-75
2023/01/21 03:02:16;;;;;;;14.02;9.52;;;;;;;17.37;40.81;102664.50;5050724;28;20032;-73
2023/01/21 03:04:47;;;;;;;13.95;9.05;;;;;;;17.40;40.89;102667.00;5050866;28;20032;-74
2023/01/21 03:07:31;;;;;;;13.77;9.75;;;;;;;17.39;41.11;102673.19;5051003;28;20078;-74
2023/01/21 03:10:05;;;;;;;14.10;8.98;;;;;;;17.35;40.89;102666.34;5051318;28;20033;-74
2023/01/21 03:12:39;;;;;;;14.82;10.50;;;;;;;17.38;40.90;102668.81;5049879;28;20036;-73
2023/01/21 03:18:02;;;;;;;14.60;9.48;;;;;;;17.40;41.28;102674.91;5057361;28;19919;-73
2023/01/21 03:20:33;;;;;;;13.65;9.18;;;;;;;17.36;41.13;102675.97;5054117;28;20037;-72
2023/01/21 03:23:02;;;;;;;14.23;10.10;;;;;;;17.38;41.42;102684.66;5054069;28;20033;-74
2023/01/21 03:25:30;;;;;;;14.30;10.65;;;;;;;17.37;41.11;102682.97;5053920;28;20440;-73
2023/01/21 03:27:58;;;;;;;14.90;9.95;;;;;;;17.38;41.53;102689.06;5053875;28;20040;-76
2023/01/21 03:30:24;;;;;;;16.02;10.90;;;;;;;17.35;41.38;102678.69;5054164;28;20126;-75
2023/01/21 03:32:53;;;;;;;14.13;10.30;;;;;;;17.37;41.35;102684.72;5054512;28;20067;-75
2023/01/21 03:35:26;;;;;;;14.98;10.50;;;;;;;17.33;41.67;102683.19;5054489;28;20047;-75
2023/01/21 03:38:23;;;;;;;14.23;9.85;;;;;;;17.39;41.75;102691.63;5054683;28;20500;-74
2023/01/21 03:41:01;;;;;;;13.90;9.93;;;;;;;17.36;41.64;102693.56;5054008;28;20394;-75
2023/01/21 03:43:27;;;;;;;15.23;10.77;;;;;;;17.39;41.59;102699.53;5053750;28;20493;-75
2023/01/21 03:46:08;;;;;;;12.68;10.05;;;;;;;17.35;41.54;102689.22;5054077;28;20032;-73
2023/01/21 03:48:41;;;;;;;15.18;10.50;;;;;;;17.39;41.70;102702.19;5052634;28;20094;-74
2023/01/21 03:51:12;;;;;;;13.13;9.70;;;;;;;17.37;41.54;102711.94;5054693;28;20120;-74
2023/01/21 03:53:37;;;;;;;14.65;10.02;;;;;;;17.38;41.79;102705.72;5054554;28;20119;-75
2023/01/21 03:56:03;;;;;;;13.02;9.63;;;;;;;17.40;41.88;102713.56;5054104;28;20531;-74
2023/01/21 03:58:28;;;;;;;13.23;10.13;;;;;;;17.37;41.94;102714.59;5054403;28;20476;-75
2023/01/21 04:00:53;;;;;;;13.98;9.75;;;;;;;17.41;41.79;102717.91;5053191;28;20037;-75
2023/01/21 04:03:19;;;;;;;12.30;9.18;;;;;;;17.41;41.86;102726.66;5054321;28;20077;-76
2023/01/21 04:05:44;;;;;;;14.90;10.15;;;;;;;17.35;41.94;102708.50;5060468;28;20025;-75
2023/01/21 04:08:09;;;;;;;13.73;9.77;;;;;;;17.43;41.70;102726.59;5054162;28;20029;-76
2023/01/21 04:10:35;;;;;;;12.70;9.73;;;;;;;17.39;41.77;102714.50;5053480;28;20028;-74
2023/01/21 04:13:00;;;;;;;14.13;9.23;;;;;;;17.41;41.90;102718.75;5054097;28;20021;-73
2023/01/21 04:15:25;;;;;;;14.60;9.85;;;;;;;17.40;41.68;102717.06;5054262;28;20120;-77
2023/01/21 04:17:51;;;;;;;12.77;9.75;;;;;;;17.39;41.71;102725.91;5054248;28;20021;-74
2023/01/21 04:20:16;;;;;;;14.07;9.30;;;;;;;17.43;41.62;102731.88;5053711;28;20033;-72
2023/01/21 04:22:41;;;;;;;13.52;9.45;;;;;;;17.40;41.76;102730.25;5053663;28;20038;-75
2023/01/21 04:25:07;;;;;;;14.07;9.15;;;;;;;17.43;41.72;102734.50;5052892;28;20033;-74
2023/01/21 04:27:32;;;;;;;12.98;8.75;;;;;;;17.44;41.81;102743.28;5052513;28;20029;-75
2023/01/21 04:29:57;;;;;;;14.43;9.25;;;;;;;17.43;41.88;102737.13;5053470;28;20036;-73
2023/01/21 04:32:23;;;;;;;14.32;8.68;;;;;;;17.44;41.88;102745.91;5054204;28;20922;-74
2023/01/21 04:34:48;;;;;;;12.82;8.75;;;;;;;17.42;41.74;102740.72;5052986;28;20044;-74
2023/01/21 04:37:13;;;;;;;11.95;8.57;;;;;;;17.40;41.97;102737.28;5053544;28;20037;-74
2023/01/21 04:39:38;;;;;;;13.98;9.43;;;;;;;17.43;41.95;102742.41;5052835;28;20032;-73
2023/01/21 04:42:04;;;;;;;15.20;9.98;;;;;;;17.42;41.67;102735.44;5053611;28;20045;-74
2023/01/21 04:44:29;;;;;;;13.20;9.25;;;;;;;17.41;41.65;102742.47;5059203;28;20051;-76
2023/01/21 04:46:55;;;;;;;12.45;9.23;;;;;;;17.44;41.46;102749.41;5053164;28;20032;-75
2023/01/21 04:49:20;;;;;;;12.93;8.65;;;;;;;17.36;41.89;102739.22;5053560;28;20074;-75
2023/01/21 04:51:45;;;;;;;12.45;8.48;;;;;;;17.40;41.67;102750.47;5053748;28;20035;-73
2023/01/21 04:54:11;;;;;;;12.65;8.63;;;;;;;17.45;41.95;102763.41;5052632;28;20639;-73
2023/01/21 04:56:36;;;;;;;14.35;9.07;;;;;;;17.43;41.96;102765.28;5059870;28;20090;-75
2023/01/21 04:59:03;;;;;;;11.32;7.88;;;;;;;17.45;41.99;102771.31;5052877;28;20032;-74
2023/01/21 05:01:28;;;;;;;13.02;8.25;;;;;;;17.42;41.78;102764.44;5052822;28;20493;-74
2023/01/21 05:03:53;;;;;;;10.35;8.02;;;;;;;17.38;41.88;102761.06;5052526;28;20044;-74
2023/01/21 05:06:18;;;;;;;13.30;8.88;;;;;;;17.40;42.07;102761.88;5067943;28;20140;-74
2023/01/21 05:08:44;;;;;;;11.65;8.25;;;;;;;17.40;41.85;102771.53;5051386;28;20041;-74
2023/01/21 05:11:14;;;;;;;12.80;8.43;;;;;;;17.39;42.02;102764.59;5052542;28;20036;-73
2023/01/21 05:13:39;;;;;;;12.38;8.68;;;;;;;17.38;42.08;102770.78;5052292;28;20111;-72
2023/01/21 05:16:07;;;;;;;12.57;8.38;;;;;;;17.43;42.02;102771.41;5053436;28;20143;-73
2023/01/21 05:18:33;;;;;;;12.38;8.35;;;;;;;17.39;41.70;102775.97;5052277;28;20075;-73
2023/01/21 05:20:58;;;;;;;11.93;8.60;;;;;;;17.40;41.91;102782.09;5052954;28;20466;-73
2023/01/21 05:23:23;;;;;;;12.23;8.38;;;;;;;17.44;41.57;102788.09;5052266;28;20033;-73
2023/01/21 05:25:49;;;;;;;13.45;8.45;;;;;;;17.44;41.93;102788.09;5052425;28;20071;-73
2023/01/21 05:28:14;;;;;;;10.48;7.63;;;;;;;17.44;41.78;102796.00;5052355;28;20384;-75
2023/01/21 05:30:39;;;;;;;11.93;7.93;;;;;;;17.45;41.91;102792.41;5051903;28;20071;-75
2023/01/21 05:33:05;;;;;;;10.50;6.82;;;;;;;17.44;41.72;102798.63;5052073;28;20396;-74
2023/01/21 05:35:30;;;;;;;8.88;6.80;;;;;;;17.46;40.97;102799.41;5052468;28;20048;-74
2023/01/21 05:37:55;;;;;;;8.85;6.35;;;;;;;17.43;40.62;102791.66;5052045;28;20037;-75
2023/01/21 05:40:21;;;;;;;9.38;5.50;;;;;;;17.47;40.39;102794.06;5067184;28;20124;-77
2023/01/21 05:42:46;;;;;;;9.10;5.43;;;;;;;17.53;40.16;102804.31;5051938;28;20033;-75
2023/01/21 05:45:12;;;;;;;8.85;5.65;;;;;;;17.55;39.86;102807.72;5052516;28;20131;-76
2023/01/21 05:47:38;;;;;;;9.38;5.88;;;;;;;17.65;40.09;102809.94;5051882;28;20060;-73
2023/01/21 05:50:04;;;;;;;8.73;5.50;;;;;;;17.69;39.95;102812.34;5052091;28;20576;-74
2023/01/21 05:52:29;;;;;;;8.07;5.53;;;;;;;17.71;39.74;102812.28;5067219;28;20066;-74
2023/01/21 05:54:54;;;;;;;9.40;4.82;;;;;;;17.74;39.97;102809.50;5050938;28;20028;-74
2023/01/21 05:57:20;;;;;;;7.65;4.65;;;;;;;17.77;39.96;102804.06;5051794;28;20060;-75
2023/01/21 05:59:45;;;;;;;8.90;5.80;;;;;;;17.83;39.87;102816.09;5051933;28;20111;-73
2023/01/21 06:02:10;;;;;;;8.23;4.93;;;;;;;17.83;39.56;102816.09;5051098;28;20032;-74
2023/01/21 06:04:36;;;;;;;7.38;5.07;;;;;;;17.76;39.65;102805.81;5051214;28;20285;-74
2023/01/21 06:07:01;;;;;;;8.75;5.30;;;;;;;17.87;39.83;102828.22;5051591;28;20075;-74
2023/01/21 06:09:26;;;;;;;7.72;5.00;;;;;;;17.91;39.79;102835.06;5057490;28;20078;-74
2023/01/21 06:11:51;;;;;;;9.73;5.10;;;;;;;17.92;39.66;102834.97;5052113;28;20061;-75
2023/01/21 06:14:17;;;;;;;9.32;5.18;;;;;;;17.95;39.48;102836.63;5057699;28;20033;-74
2023/01/21 06:16:42;;;;;;;8.52;5.22;;;;;;;17.92;39.50;102837.63;5051906;28;20059;-76
2023/01/21 06:19:07;;;;;;;8.73;5.22;;;;;;;17.93;39.81;102834.06;5051359;28;20049;-76
2023/01/21 06:21:33;;;;;;;8.30;5.05;;;;;;;17.95;39.51;102841.91;5051254;28;20028;-75
2023/01/21 06:23:59;;;;;;;7.40;4.55;;;;;;;17.98;39.65;102840.91;5051159;28;20499;-75
2023/01/21 06:26:24;;;;;;;7.78;5.05;;;;;;;17.99;40.01;102843.47;5051388;28;20107;-74
2023/01/21 06:28:50;;;;;;;7.22;4.78;;;;;;;17.97;39.48;102853.22;5051061;28;20489;-74
2023/01/21 06:31:15;;;;;;;8.40;4.88;;;;;;;17.99;39.40;102855.78;5050838;28;20588;-76
2023/01/21 06:33:40;;;;;;;7.88;4.88;;;;;;;17.93;39.35;102844.63;5051334;28;20528;-76
2023/01/21 06:36:06;;;;;;;9.65;4.82;;;;;;;17.92;39.46;102845.53;5050788;28;20032;-77
2023/01/21 06:38:34;;;;;;;7.28;4.95;;;;;;;17.97;39.62;102862.94;5052081;28;20465;-76
2023/01/21 06:41:00;;;;;;;9.10;4.72;;;;;;;17.95;39.80;102863.00;5050966;28;20064;-72
2023/01/21 06:43:25;;;;;;;7.25;4.78;;;;;;;17.98;39.95;102872.56;5050988;28;20079;-75
2023/01/21 06:45:51;;;;;;;8.57;5.13;;;;;;;17.98;39.78;102881.31;5051714;28;20028;-74
2023/01/21 06:48:16;;;;;;;8.48;4.82;;;;;;;17.97;39.83;102881.41;5049494;28;20094;-75
2023/01/21 06:50:41;;;;;;;9.13;4.90;;;;;;;17.95;39.84;102881.47;5050339;28;21080;-75
2023/01/21 06:53:06;;;;;;;9.30;4.63;;;;;;;17.94;39.58;102878.00;5050913;28;20522;-76
2023/01/21 06:55:32;;;;;;;11.50;5.22;;;;;;;17.94;40.02;102878.00;5050890;28;20038;-74
2023/01/21 06:57:57;;;;;;;7.55;4.93;;;;;;;17.97;39.51;102884.03;5050530;28;20033;-74
2023/01/21 07:00:22;;;;;;;8.33;4.70;;;;;;;17.92;39.98;102882.47;5051182;28;20789;-74
2023/01/21 07:02:47;;;;;;;7.65;4.95;;;;;;;17.98;39.86;102896.31;5051170;28;20262;-75
2023/01/21 07:05:13;;;;;;;7.72;4.90;;;;;;;17.93;39.61;102888.63;5050177;28;20094;-74
2023/01/21 07:07:39;;;;;;;7.72;4.75;;;;;;;17.94;39.73;102890.31;5050300;28;20424;-75
2023/01/21 07:10:05;;;;;;;7.60;4.70;;;;;;;17.98;39.93;102910.34;5050508;28;20075;-75
2023/01/21 07:12:30;;;;;;;7.10;4.60;;;;;;;17.98;39.86;102907.72;5050060;28;20044;-73
2023/01/21 07:14:56;;;;;;;7.43;4.88;;;;;;;17.99;39.38;102914.72;5049857;28;20040;-75
2023/01/21 07:17:22;;;;;;;7.45;4.18;;;;;;;17.96;39.71;102906.94;5050795;28;20384;-74
2023/01/21 07:19:47;;;;;;;9.30;4.85;;;;;;;17.98;39.60;102917.41;5050565;28;20043;-74
2023/01/21 07:22:12;;;;;;;7.75;4.60;;;;;;;17.97;39.53;102919.19;5051369;28;20412;-73
2023/01/21 07:24:38;;;;;;;7.78;4.60;;;;;;;17.97;39.40;102921.81;5051171;28;20517;-75
2023/01/21 07:27:05;;;;;;;8.18;4.60;;;;;;;17.99;39.40;102933.19;5050589;28;20025;-73
2023/01/21 07:29:30;;;;;;;7.18;4.57;;;;;;;17.97;39.79;102929.72;5057610;28;20044;-75
2023/01/21 07:31:55;;;;;;;7.18;4.75;;;;;;;18.01;39.50;102933.06;5050822;28;20545;-74
2023/01/21 07:34:20;;;;;;;8.65;4.28;;;;;;;17.97;39.46;102926.25;5050564;28;20671;-75
2023/01/21 07:36:46;;;;;;;8.40;4.55;;;;;;;17.99;39.39;102937.56;5050051;28;20029;-75
2023/01/21 07:39:11;;;;;;;8.63;4.72;;;;;;;17.99;39.46;102943.72;5050853;28;20102;-74
2023/01/21 07:41:36;;;;;;;7.25;4.43;;;;;;;17.99;39.33;102946.38;5050964;28;20059;-74
2023/01/21 07:44:02;;;;;;;6.97;4.47;;;;;;;18.03;39.56;102954.97;5049613;28;20087;-75
2023/01/21 07:46:27;;;;;;;7.57;4.15;;;;;;;17.99;39.50;102951.63;5050164;28;20032;-73
2023/01/21 07:48:52;;;;;;;8.43;4.38;;;;;;;18.01;39.46;102954.19;5048607;28;20091;-74
2023/01/21 07:51:19;;;;;;;7.10;4.55;;;;;;;18.01;39.42;102962.09;5047563;28;20374;-74
2023/01/21 07:53:44;;;;;;;7.25;4.07;;;;;;;17.99;39.67;102959.56;5053264;28;20025;-75
2023/01/21 07:56:10;;;;;;;7.15;4.30;;;;;;;18.00;39.39;102960.41;5050710;28;20477;-76
2023/01/21 07:58:36;;;;;;;7.45;4.45;;;;;;;18.00;39.32;102969.16;5045912;28;20068;-76
2023/01/21 08:01:04;;;;;;;7.22;4.80;;;;;;;18.05;39.67;102976.88;5048336;28;20090;-76
2023/01/21 08:03:29;;;;;;;7.32;4.78;;;;;;;18.05;39.58;102992.69;5048092;28;20036;-76
2023/01/21 08:05:54;;;;;;;8.82;4.50;;;;;;;18.04;39.36;102985.69;5050849;28;20032;-74
2023/01/21 08:08:19;;;;;;;7.88;4.32;;;;;;;18.09;39.33;103002.19;5052894;28;20255;-72
2023/01/21 08:10:51;;;;;;;7.00;4.45;;;;;;;18.09;39.39;103010.09;5052494;28;20033;-73
2023/01/21 08:13:17;;;;;;;7.55;4.30;;;;;;;18.07;39.46;103004.91;5051646;28;20059;-73
2023/01/21 08:15:42;;;;;;;8.48;5.30;;;;;;;18.09;39.44;103012.75;5049371;28;20120;-76
2023/01/21 08:18:07;;;;;;;10.88;5.97;;;;;;;18.06;39.21;103007.59;5051524;28;20037;-75
2023/01/21 08:20:32;;;;;;;8.15;5.28;;;;;;;18.05;39.55;103014.66;5051545;28;20115;-76
2023/01/21 08:23:01;;;;;;;10.02;5.38;;;;;;;18.06;39.81;103020.81;5051315;28;20044;-74
2023/01/21 08:25:27;;;;;;;8.95;4.88;;;;;;;18.06;39.75;103028.72;5050656;28;20184;-75
2023/01/21 08:27:52;;;;;;;8.73;5.30;;;;;;;18.04;39.89;103020.88;5048705;28;20384;-77
2023/01/21 08:30:17;;;;;;;9.00;4.90;;;;;;;18.08;39.93;103040.03;5049846;28;20119;-75
2023/01/21 08:32:44;;;;;;;10.07;5.18;;;;;;;18.05;40.01;103041.03;5048624;28;20273;-79
2023/01/21 08:35:09;;;;;;;8.70;4.95;;;;;;;18.10;39.97;103043.47;5047821;28;20033;-78
2023/01/21 08:37:35;;;;;;;10.07;5.13;;;;;;;18.10;40.12;103043.47;5048953;28;20531;-75
2023/01/21 08:40:00;;;;;;;6.93;4.53;;;;;;;18.08;40.35;103046.16;5047252;28;20381;-77
2023/01/21 08:42:25;;;;;;;10.57;5.50;;;;;;;18.11;40.36;103053.09;5049103;28;20120;-75
2023/01/21 08:44:52;;;;;;;7.78;4.68;;;;;;;18.11;40.61;103055.75;5057900;28;20045;-74
2023/01/21 08:47:18;;;;;;;7.97;4.95;;;;;;;18.15;40.83;103053.81;5053181;28;20041;-72
2023/01/21 08:49:43;;;;;;;8.90;4.93;;;;;;;18.15;40.66;103062.59;5049924;28;20037;-76
2023/01/21 08:52:09;;;;;;;8.25;4.88;;;;;;;18.20;40.94;103067.63;5047887;28;20044;-78
2023/01/21 08:54:35;;;;;;;9.05;5.05;;;;;;;18.21;40.99;103072.84;5048352;28;20044;-78
2023/01/21 08:57:00;;;;;;;8.55;4.82;;;;;;;18.21;40.91;103075.47;5065070;28;20036;-79
2023/01/21 08:59:28;;;;;;;7.90;4.63;;;;;;;18.19;41.26;103069.44;5049596;28;20466;-77
2023/01/21 09:01:55;;;;;;;7.55;4.78;;;;;;;18.21;41.33;103082.56;5052355;28;20101;-79
2023/01/21 09:04:20;;;;;;;7.10;4.72;;;;;;;18.20;41.11;103079.06;5056846;28;20032;-77
2023/01/21 09:06:46;;;;;;;9.40;4.90;;;;;;;18.15;41.29;103067.00;5052199;28;20388;-78
2023/01/21 09:09:11;;;;;;;7.25;4.40;;;;;;;18.23;41.47;103075.41;5053516;28;20039;-80
2023/01/21 09:11:37;;;;;;;8.75;5.15;;;;;;;18.25;41.38;103074.44;5051362;28;20041;-76
2023/01/21 09:14:03;;;;;;;10.55;4.45;;;;;;;18.26;41.58;103080.56;5053318;28;20059;-79
2023/01/21 09:16:30;;;;;;;8.82;5.13;;;;;;;18.31;41.60;103083.84;5053516;28;20032;-79
2023/01/21 09:18:55;;;;;;;8.73;4.88;;;;;;;18.27;41.62;103084.91;5053662;28;20040;-78
2023/01/21 09:21:21;;;;;;;8.90;5.43;;;;;;;18.28;41.65;103092.75;5052087;28;20043;-77
2023/01/21 09:23:48;;;;;;;7.68;4.60;;;;;;;18.26;41.86;103086.72;5052440;28;20094;-78
2023/01/21 09:26:19;;;;;;;9.35;5.47;;;;;;;18.26;41.66;103085.81;5052326;28;20489;-79
2023/01/21 09:28:53;;;;;;;8.35;5.18;;;;;;;18.27;41.70;103091.03;5059148;28;20397;-79
2023/01/21 09:31:20;;;;;;;8.27;4.93;;;;;;;18.24;41.64;103080.63;5052603;28;20028;-74
2023/01/21 09:33:47;;;;;;;7.50;4.90;;;;;;;18.28;41.76;103087.47;5052154;28;20036;-77
2023/01/21 09:36:15;;;;;;;9.85;5.57;;;;;;;18.29;41.74;103090.97;5053612;28;20024;-76
2023/01/21 09:38:42;;;;;;;7.47;5.25;;;;;;;18.28;41.52;103098.03;5053659;28;20044;-78
2023/01/21 09:41:33;;;;;;;8.63;4.93;;;;;;;18.31;41.88;103110.25;5060359;28;20048;-77
2023/01/21 09:44:06;;;;;;;8.68;4.90;;;;;;;18.30;41.56;103112.00;5052338;28;20405;-71
2023/01/21 09:46:37;;;;;;;8.05;4.93;;;;;;;18.28;41.78;103121.78;5052676;28;20376;-74
2023/01/21 09:49:10;;;;;;;8.57;5.15;;;;;;;18.32;41.96;103119.88;5053350;28;20037;-74
2023/01/21 09:51:45;;;;;;;8.38;5.40;;;;;;;18.23;41.52;103118.53;5053679;28;20503;-74
2023/01/21 09:54:31;;;;;;;10.20;5.80;;;;;;;18.31;41.60;103139.28;5051970;28;20550;-77
2023/01/21 09:57:16;;;;;;;11.68;6.05;;;;;;;18.32;41.47;103143.63;5052049;28;20036;-75
2023/01/21 10:00:06;;;;;;;11.18;6.20;;;;;;;18.27;41.35;103137.72;5052573;28;20155;-76
2023/01/21 10:03:07;;;;;;;10.05;5.85;;;;;;;18.31;41.60;103144.56;5052462;28;20043;-75
2023/01/21 10:05:51;;;;;;;14.50;6.32;;;;;;;18.28;41.34;103155.25;5000833;28;20045;-76
2023/01/21 10:08:46;;;;;;;11.15;6.15;;;;;;;18.27;41.39;103158.81;5048614;28;20123;-75
2023/01/21 10:11:36;;;;;;;;;;;;;;;18.31;41.58;103165.69;5053111;28;20036;-77
2023/01/21 10:14:22;;;;;;;10.00;5.63;;;;;;;18.26;41.66;103157.97;5067566;28;20401;-76
2023/01/21 10:17:30;;;;;;;10.85;5.68;;;;;;;18.24;41.54;103166.88;5052292;28;20098;-77
2023/01/21 10:20:14;;;;;;;9.90;5.78;;;;;;;18.25;41.56;103177.38;5052646;28;21281;-75
2023/01/21 10:22:47;;;;;;;9.30;5.40;;;;;;;18.23;41.78;103167.78;5052253;28;20048;-77
2023/01/21 10:25:21;;;;;;;8.95;5.43;;;;;;;18.20;41.82;103175.84;5058366;28;20132;-76
2023/01/21 10:27:47;;;;;;;9.43;5.57;;;;;;;18.21;41.40;103175.78;5050944;28;20029;-76
2023/01/21 10:30:22;;;;;;;9.77;5.60;;;;;;;18.19;41.73;103175.00;5052446;28;20086;-76
2023/01/21 10:32:51;;;;;;;9.02;5.25;;;;;;;18.18;41.45;103173.28;5051429;28;20044;-77
2023/01/21 10:35:18;;;;;;;9.05;5.38;;;;;;;18.23;41.59;103183.63;5051026;28;20075;-79
2023/01/21 10:37:51;;;;;;;10.00;6.50;;;;;;;18.20;41.67;103173.22;5050857;28;20041;-74
2023/01/21 10:40:42;;;;;;;9.63;5.35;;;;;;;18.18;41.62;103168.00;5050439;28;20036;-75
2023/01/21 10:43:37;;;;;;;9.80;5.97;;;;;;;18.23;41.41;103160.75;5051565;28;20032;-76
2023/01/21 10:46:27;;;;;;;11.45;6.53;;;;;;;18.25;41.61;103168.59;5051488;28;20524;-76
2023/01/21 10:49:19;;;;;;;10.50;5.85;;;;;;;18.19;41.28;103155.69;5051427;28;20084;-76
2023/01/21 10:51:54;;;;;;;9.68;6.00;;;;;;;18.22;41.52;103160.81;5042078;28;20464;-77
2023/01/21 10:54:37;;;;;;;9.88;5.85;;;;;;;18.22;41.41;103155.53;5056645;28;20032;-77
2023/01/21 10:57:38;;;;;;;10.73;6.22;;;;;;;18.24;41.47;103157.16;5049858;28;20041;-71
2023/01/21 11:00:16;;;;;;;11.73;6.93;;;;;;;18.20;41.24;103144.16;5051716;28;20214;-76
2023/01/21 11:02:41;;;;;;;11.68;6.75;;;;;;;18.19;40.95;103143.31;5051299;28;20049;-75
2023/01/21 11:05:12;;;;;;;10.20;6.15;;;;;;;18.18;41.40;103148.69;5050531;28;20059;-76
2023/01/21 11:07:41;;;;;;;12.30;7.25;;;;;;;18.22;40.91;103152.91;5051364;28;20029;-70
2023/01/21 11:10:07;;;;;;;11.65;6.97;;;;;;;18.21;40.77;103152.03;5051123;28;20028;-74
2023/01/21 11:12:32;;;;;;;11.02;7.00;;;;;;;18.26;40.83;103159.75;5050576;28;20044;-73
2023/01/21 11:15:01;;;;;;;11.77;7.07;;;;;;;18.26;40.97;103155.34;5049336;28;20037;-67
2023/01/21 11:17:35;;;;;;;12.60;8.02;;;;;;;18.26;41.27;103136.84;5049886;28;20490;-69
2023/01/21 11:20:05;;;;;;;12.95;7.18;;;;;;;18.30;41.41;103156.03;5050910;28;20423;-69
2023/01/21 11:22:31;;;;;;;10.85;6.97;;;;;;;18.30;41.53;103140.22;5050338;28;20036;-68
2023/01/21 11:24:58;;;;;;;11.48;7.10;;;;;;;18.30;41.61;103148.97;5049761;28;20454;-69
2023/01/21 11:27:26;;;;;;;11.60;7.07;;;;;;;18.34;41.60;103147.06;5049883;28;20824;-70
2023/01/21 11:29:52;;;;;;;11.40;7.35;;;;;;;18.33;41.67;103136.59;5050309;28;20082;-72
2023/01/21 11:32:22;;;;;;;12.38;7.22;;;;;;;18.36;41.88;103144.31;5051457;28;20036;-68
2023/01/21 11:34:50;;;;;;;13.18;7.50;;;;;;;18.41;41.68;103145.00;5050902;28;20033;-70